Impacts METAR Board INFO
IDs:

KMSP - Minneapolis-St Paul, MN, US

Updated at: 1049 UTC 18 Dec 2017
Potential Impact None Slight Moderate High
Time17/22Z 17/23Z 18/00Z 18/01Z 18/02Z 18/03Z 18/04Z 18/05Z 18/06Z 18/07Z 18/08Z 18/09Z 18/10Z
VIS4 5 5 5 5 5 5 6 5 4 4 4
CIG11 12 12 11 10 10 7 7 6 5 5 5
CoverOVCOVCOVCOVCOVCOVCOVCOVCOVCOVCOVCOVC
FltCatMVFRMVFRMVFRMVFRMVFRMVFRIFRIFRIFRIFRIFRIFR
WXBRBRBRBRBRBRBRBRBRBRBRBR
WDir0016015001501802101802200150
WSpd0 0 4 4 3 6 6 4 5 4 0 4
WGst-- -- -- -- -- -- -- -- -- -- -- --
Raw hourly METARs
KMSP 172153Z 00000KT 4SM BR OVC011 M02/M04 A2998 RMK AO2 SLP164 T10221044
KMSP 172253Z 00000KT 5SM BR OVC012 M02/M04 A2997 RMK AO2 SLP162 T10221044
KMSP 172353Z 16004KT 5SM BR OVC012 M02/M04 A2998 RMK AO2 SLP165 4/002 T10221044 11022 21028 55006
KMSP 180053Z 15004KT 5SM BR OVC011 M03/M04 A2998 RMK AO2 SLP166 T10281044
KMSP 180153Z VRB03KT 5SM BR OVC010 M03/M04 A2999 RMK AO2 SLP169 T10281039
KMSP 180253Z 15006KT 5SM BR OVC010 M03/M04 A2997 RMK AO2 SLP162 T10281039 58002
KMSP 180353Z 18006KT 5SM BR OVC007 M03/M04 A2996 RMK AO2 SLP156 T10281039
KMSP 180453Z 21004KT 6SM BR OVC007 M03/M04 A2996 RMK AO2 SLP156 T10281039
KMSP 180553Z 18005KT 5SM BR OVC006 M03/M03 A2993 RMK AO2 SLP146 4/002 T10331033 11022 21033 410221078 58016
KMSP 180653Z 22004KT 4SM BR OVC005 M03/M03 A2992 RMK AO2 SLP142 T10331033
KMSP 180753Z 00000KT 4SM BR OVC005 M03/M03 A2989 RMK AO2 SLP135 T10331033
KMSP 180853Z 15004KT 4SM BR OVC005 M03/M04 A2988 RMK AO2 SLP131 T10331039 58012